createdAt,value
2022-10-24T00:00:03.353Z,101622.66
2022-10-24T00:02:51.600Z,101632.28
2022-10-24T00:05:38.448Z,101613.94
2022-10-24T00:08:25.177Z,101557.22
2022-10-24T00:11:11.933Z,101621.81
2022-10-24T00:13:59.134Z,101630.50
2022-10-24T00:16:47.697Z,101627.03
2022-10-24T00:19:34.523Z,101620.94
2022-10-24T00:22:21.382Z,101634.03
2022-10-24T00:25:08.093Z,101625.28
2022-10-24T00:27:55.783Z,101620.06
2022-10-24T00:30:42.575Z,101620.94
2022-10-24T00:33:29.333Z,101626.19
2022-10-24T00:36:16.052Z,101612.22
2022-10-24T00:39:03.250Z,101624.44
2022-10-24T00:41:56.288Z,101628.81
2022-10-24T00:44:44.708Z,101627.06
2022-10-24T00:47:35.894Z,101631.44
2022-10-24T00:50:33.581Z,101636.69
2022-10-24T00:53:20.369Z,101636.69
2022-10-24T00:56:12.196Z,101641.94
2022-10-24T00:59:01.500Z,101635.81
2022-10-24T01:01:48.350Z,101632.34
2022-10-24T01:04:35.748Z,101631.44
2022-10-24T01:07:22.399Z,101627.06
2022-10-24T01:10:31.800Z,101640.16
2022-10-24T01:13:44.833Z,101629.69
2022-10-24T01:16:40.928Z,101641.94
2022-10-24T01:19:56.167Z,101630.56
2022-10-24T01:22:50.263Z,101638.44
2022-10-24T01:25:55.149Z,101631.47
2022-10-24T01:28:47.477Z,101635.81
2022-10-24T01:31:45.655Z,101600.00
2022-10-24T01:34:57.753Z,101640.16
2022-10-24T01:37:59.736Z,101644.56
2022-10-24T01:40:53.385Z,101616.59
2022-10-24T01:43:45.860Z,101653.28
2022-10-24T01:46:38.329Z,101648.03
2022-10-24T01:49:40.608Z,101646.28
2022-10-24T01:52:32.065Z,101654.16
2022-10-24T01:55:19.567Z,101653.28
2022-10-24T01:58:06.300Z,101647.19
2022-10-24T02:00:53.301Z,101660.28
2022-10-24T02:03:58.711Z,101662.84
2022-10-24T02:06:52.560Z,101665.47
2022-10-24T02:09:40.755Z,101655.88
2022-10-24T02:12:30.189Z,101627.06
2022-10-24T02:15:23.578Z,101654.16
2022-10-24T02:18:11.037Z,101659.38
2022-10-24T02:21:07.029Z,101660.22
2022-10-24T02:24:12.676Z,101653.25
2022-10-24T02:27:13.912Z,101660.22
2022-10-24T02:30:07.204Z,101625.28
2022-10-24T02:32:57.243Z,101653.25
2022-10-24T02:35:51.136Z,101586.88
2022-10-24T02:38:52.008Z,101664.59
2022-10-24T02:41:49.515Z,101670.69
2022-10-24T02:44:38.051Z,101669.81
2022-10-24T02:47:26.778Z,101689.00
2022-10-24T02:50:14.347Z,101691.63
2022-10-24T02:53:03.549Z,101658.44
2022-10-24T02:55:50.326Z,101677.63
2022-10-24T02:58:37.153Z,101678.50
2022-10-24T03:01:24.768Z,101660.19
2022-10-24T03:04:11.573Z,101670.66
2022-10-24T03:06:58.334Z,101676.75
2022-10-24T03:09:45.048Z,101669.75
2022-10-24T03:12:35.232Z,101668.03
2022-10-24T03:15:22.055Z,101666.28
2022-10-24T03:18:08.816Z,101666.25
2022-10-24T03:20:55.549Z,101664.47
2022-10-24T03:23:42.267Z,101695.91
2022-10-24T03:26:28.992Z,101678.47
2022-10-24T03:29:15.688Z,101685.41
2022-10-24T03:32:02.384Z,101688.91
2022-10-24T03:34:49.089Z,101687.16
2022-10-24T03:37:35.872Z,101690.63
2022-10-24T03:40:23.359Z,101685.38
2022-10-24T03:43:10.120Z,101681.88
2022-10-24T03:45:56.941Z,101676.63
2022-10-24T03:48:43.648Z,101694.09
2022-10-24T03:51:30.409Z,101685.34
2022-10-24T03:54:17.183Z,101694.09
2022-10-24T03:57:04.683Z,101694.06
2022-10-24T03:59:51.590Z,101697.53
2022-10-24T04:02:40.318Z,101698.41
2022-10-24T04:05:30.109Z,101702.75
2022-10-24T04:08:17.108Z,101696.66
2022-10-24T04:11:03.902Z,101701.88
2022-10-24T04:13:51.007Z,101712.34
2022-10-24T04:16:38.645Z,101694.81
2022-10-24T04:19:25.388Z,101675.59
2022-10-24T04:22:12.381Z,101701.78
2022-10-24T04:24:59.169Z,101713.19
2022-10-24T04:27:46.112Z,101709.72
2022-10-24T04:30:34.600Z,101710.56
2022-10-24T04:33:21.360Z,101704.41
2022-10-24T04:36:09.388Z,101630.06
2022-10-24T04:38:56.448Z,101722.69
2022-10-24T04:41:43.559Z,101633.56
2022-10-24T04:44:30.261Z,101701.75
2022-10-24T04:47:16.997Z,101709.59
2022-10-24T04:50:03.867Z,101711.34
2022-10-24T04:52:50.707Z,101712.19
2022-10-24T04:58:29.273Z,101717.38
2022-10-24T05:01:16.123Z,101643.97
2022-10-24T05:04:02.885Z,101717.38
2022-10-24T05:06:49.686Z,101712.13
2022-10-24T05:09:36.418Z,101712.09
2022-10-24T05:12:23.284Z,101713.84
2022-10-24T05:15:10.019Z,101726.91
2022-10-24T05:17:56.813Z,101716.41
2022-10-24T05:20:43.840Z,101723.41
2022-10-24T05:23:30.689Z,101644.69
2022-10-24T05:26:17.480Z,101662.16
2022-10-24T05:29:04.247Z,101729.47
2022-10-24T05:31:51.027Z,101726.84
2022-10-24T05:34:37.903Z,101730.34
2022-10-24T05:37:24.767Z,101731.22
2022-10-24T05:40:11.630Z,101722.50
2022-10-24T05:42:58.348Z,101738.16
2022-10-24T05:45:45.132Z,101733.81
2022-10-24T05:48:31.941Z,101733.81
2022-10-24T05:51:19.067Z,101729.41
2022-10-24T05:54:05.849Z,101725.06
2022-10-24T05:56:52.596Z,101733.78
2022-10-24T05:59:39.477Z,101745.06
2022-10-24T06:02:26.294Z,101741.63
2022-10-24T06:05:13.147Z,101739.84
2022-10-24T06:08:00.501Z,101738.09
2022-10-24T06:10:47.336Z,101746.81
2022-10-24T06:13:36.224Z,101729.34
2022-10-24T06:16:25.645Z,101740.72
2022-10-24T06:19:12.429Z,101730.22
2022-10-24T06:21:59.152Z,101669.88
2022-10-24T06:24:45.900Z,101738.97
2022-10-24T06:27:33.284Z,101731.09
2022-10-24T06:30:20.037Z,101738.09
2022-10-24T06:33:06.840Z,101732.84
2022-10-24T06:35:53.605Z,101735.47
2022-10-24T06:38:40.449Z,101731.94
2022-10-24T06:41:30.600Z,101717.09
2022-10-24T06:44:17.373Z,101727.63
2022-10-24T06:47:04.378Z,101732.84
2022-10-24T06:49:51.129Z,101734.59
2022-10-24T06:52:37.852Z,101738.97
2022-10-24T06:55:25.420Z,101737.19
2022-10-24T06:58:13.316Z,101710.16
2022-10-24T07:01:00.220Z,101664.66
2022-10-24T07:03:47.073Z,101731.97
2022-10-24T07:06:40.298Z,101732.88
2022-10-24T07:09:27.040Z,101726.75
2022-10-24T07:12:13.804Z,101727.66
2022-10-24T07:15:00.723Z,101732.03
2022-10-24T07:17:47.493Z,101718.94
2022-10-24T07:20:34.861Z,101733.81
2022-10-24T07:23:21.596Z,101739.91
2022-10-24T07:26:08.302Z,101735.56
2022-10-24T07:28:56.332Z,101736.47
2022-10-24T07:31:46.167Z,101735.59
2022-10-24T07:34:32.889Z,101709.41
2022-10-24T07:37:19.651Z,101719.91
2022-10-24T07:40:06.612Z,101737.41
2022-10-24T07:42:53.324Z,101734.78
2022-10-24T07:45:40.117Z,101745.28
2022-10-24T07:48:26.879Z,101744.41
2022-10-24T07:51:13.568Z,101732.25
2022-10-24T07:54:01.640Z,101728.75
2022-10-24T07:56:48.436Z,101732.28
2022-10-24T07:59:42.281Z,101736.63
2022-10-24T08:02:34.223Z,101731.41
2022-10-24T08:05:22.954Z,101740.16
2022-10-24T08:08:35.622Z,101692.06
2022-10-24T08:11:16.948Z,101745.44
2022-10-24T08:14:04.275Z,101748.94
2022-10-24T08:16:51.000Z,101734.06
2022-10-24T08:19:38.316Z,101742.84
2022-10-24T08:22:26.210Z,101744.59
2022-10-24T08:25:12.948Z,101754.25
2022-10-24T08:28:02.769Z,101761.22
2022-10-24T08:30:52.035Z,101752.50
2022-10-24T08:33:38.738Z,101760.38
2022-10-24T08:36:33.544Z,101761.28
2022-10-24T08:39:21.325Z,101759.56
2022-10-24T08:42:14.754Z,101760.47
2022-10-24T08:45:04.083Z,101763.09
2022-10-24T08:48:02.380Z,101763.13
2022-10-24T08:50:52.826Z,101765.75
2022-10-24T08:53:26.087Z,101764.00
2022-10-24T08:55:55.460Z,101765.78
2022-10-24T08:58:34.504Z,101728.22
2022-10-24T09:01:04.978Z,101761.47
2022-10-24T09:04:00.039Z,101759.72
2022-10-24T09:06:29.104Z,101720.41
2022-10-24T09:08:59.070Z,101753.66
2022-10-24T09:12:00.966Z,101760.63
2022-10-24T09:14:53.793Z,101758.91
2022-10-24T09:17:42.479Z,101757.19
2022-10-24T09:20:50.593Z,101757.19
2022-10-24T09:23:39.289Z,101748.47
2022-10-24T09:26:33.970Z,101740.59
2022-10-24T09:29:20.748Z,101756.34
2022-10-24T09:31:49.915Z,101753.72
2022-10-24T09:34:17.596Z,101753.72
2022-10-24T09:36:45.389Z,101748.47
2022-10-24T09:39:47.961Z,101738.00
2022-10-24T09:42:37.711Z,101762.47
2022-10-24T09:45:40.103Z,101759.84
2022-10-24T09:48:49.585Z,101759.84
2022-10-24T09:51:59.049Z,101744.09
2022-10-24T09:54:51.591Z,101749.34
2022-10-24T09:57:38.545Z,101747.59
2022-10-24T10:00:26.712Z,101738.84
2022-10-24T10:03:25.233Z,101718.75
2022-10-24T10:06:17.499Z,101729.22
2022-10-24T10:09:11.196Z,101742.31
2022-10-24T10:12:05.034Z,101744.91
2022-10-24T10:14:51.794Z,101745.78
2022-10-24T10:17:45.788Z,101739.63
2022-10-24T10:20:46.967Z,101735.25
2022-10-24T10:23:49.909Z,101724.78
2022-10-24T10:26:44.699Z,101743.97
2022-10-24T10:29:37.247Z,101740.44
2022-10-24T10:32:38.604Z,101740.41
2022-10-24T10:35:47.051Z,101739.53
2022-10-24T10:38:51.777Z,101736.00
2022-10-24T10:41:50.440Z,101733.34
2022-10-24T10:44:57.355Z,101733.31
2022-10-24T10:48:03.039Z,101728.03
2022-10-24T10:51:08.325Z,101719.25
2022-10-24T10:53:58.231Z,101726.22
2022-10-24T10:56:53.738Z,101725.31
2022-10-24T11:00:09.584Z,101727.00
2022-10-24T11:03:34.025Z,101716.47
2022-10-24T11:06:38.281Z,101727.81
2022-10-24T11:09:28.071Z,101723.38
2022-10-24T11:12:25.465Z,101726.81
2022-10-24T11:15:15.203Z,101716.25
2022-10-24T11:18:11.300Z,101720.59
2022-10-24T11:21:06.332Z,101716.16
2022-10-24T11:24:48.584Z,101716.13
2022-10-24T11:27:48.502Z,101708.19
2022-10-24T11:30:42.218Z,101705.50
2022-10-24T11:33:37.159Z,101701.94
2022-10-24T11:36:26.751Z,101701.00
2022-10-24T11:39:45.180Z,101708.81
2022-10-24T11:42:40.826Z,101711.44
2022-10-24T11:45:31.082Z,101711.34
2022-10-24T11:48:44.062Z,101710.41
2022-10-24T11:51:39.552Z,101701.53
2022-10-24T11:54:54.868Z,101702.38
2022-10-24T11:57:48.588Z,101692.72
2022-10-24T12:00:21.475Z,101697.88
2022-10-24T12:03:22.338Z,101689.03
2022-10-24T12:05:52.475Z,101687.22
2022-10-24T12:08:33.952Z,101681.03
2022-10-24T12:11:06.506Z,101678.31
2022-10-24T12:14:00.607Z,101676.50
2022-10-24T12:17:11.617Z,101672.97
2022-10-24T12:20:01.304Z,101677.28
2022-10-24T12:22:57.036Z,101671.97
2022-10-24T12:25:58.988Z,101675.41
2022-10-24T12:28:46.013Z,101678.84
2022-10-24T12:31:35.436Z,101665.63
2022-10-24T12:34:37.186Z,101674.38
2022-10-24T12:37:51.599Z,101669.94
2022-10-24T12:41:06.316Z,101668.97
2022-10-24T12:43:38.919Z,101663.66
2022-10-24T12:46:15.885Z,101666.25
2022-10-24T12:49:24.237Z,101668.84
2022-10-24T12:51:53.129Z,101663.50
2022-10-24T12:54:39.759Z,101650.41
2022-10-24T12:57:06.469Z,101667.84
2022-10-24T12:59:34.200Z,101667.81
2022-10-24T13:02:33.043Z,101668.66
2022-10-24T13:05:28.959Z,101660.72
2022-10-24T13:08:39.674Z,101657.16
2022-10-24T13:11:57.373Z,101657.13
2022-10-24T13:14:53.164Z,101660.59
2022-10-24T13:18:01.092Z,101657.97
2022-10-24T13:20:53.798Z,101608.25
2022-10-24T13:23:47.960Z,101590.00
2022-10-24T13:27:01.082Z,101662.31
2022-10-24T13:29:47.849Z,101659.63
2022-10-24T13:32:34.548Z,101655.22
2022-10-24T13:35:23.655Z,101654.34
2022-10-24T13:38:12.491Z,101663.97
2022-10-24T13:41:03.727Z,101654.31
2022-10-24T13:43:50.738Z,101651.63
2022-10-24T13:46:53.430Z,101650.72
2022-10-24T13:49:58.308Z,101644.59
2022-10-24T13:52:52.936Z,101641.94
2022-10-24T13:56:05.443Z,101554.00
2022-10-24T13:58:59.056Z,101648.94
2022-10-24T14:01:48.733Z,101641.00
2022-10-24T14:04:35.515Z,101627.03
2022-10-24T14:07:25.817Z,101631.31
2022-10-24T14:10:35.961Z,101631.34
2022-10-24T14:13:23.249Z,101629.56
2022-10-24T14:16:20.032Z,101631.34
2022-10-24T14:19:07.005Z,101607.72
2022-10-24T14:22:03.775Z,101624.28
2022-10-24T14:24:51.265Z,101627.84
2022-10-24T14:27:39.265Z,101630.44
2022-10-24T14:30:30.532Z,101620.75
2022-10-24T14:33:50.280Z,101599.94
2022-10-24T14:36:42.456Z,101620.75
2022-10-24T14:39:37.492Z,101588.50
2022-10-24T14:42:24.403Z,101610.34
2022-10-24T14:45:11.750Z,101618.19
2022-10-24T14:47:58.479Z,101621.63
2022-10-24T14:50:57.243Z,101624.28
2022-10-24T14:53:47.265Z,101617.28
2022-10-24T14:56:48.947Z,101614.63
2022-10-24T14:59:44.723Z,101619.91
2022-10-24T15:03:03.489Z,101618.16
2022-10-24T15:05:53.579Z,101624.31
2022-10-24T15:08:47.496Z,101535.44
2022-10-24T15:11:34.219Z,101605.00
2022-10-24T15:14:20.953Z,101619.97
2022-10-24T15:17:07.720Z,101609.41
2022-10-24T15:19:57.628Z,101609.41
2022-10-24T15:22:55.639Z,101600.72
2022-10-24T15:25:54.545Z,101613.84
2022-10-24T15:29:18.911Z,101619.09
2022-10-24T15:32:08.036Z,101624.38
2022-10-24T15:34:54.734Z,101618.25
2022-10-24T15:37:44.250Z,101617.38
2022-10-24T15:40:39.529Z,101518.97
2022-10-24T15:43:28.779Z,101616.50
2022-10-24T15:46:15.501Z,101626.19
2022-10-24T15:49:02.324Z,101615.66
2022-10-24T15:52:08.989Z,101614.78
2022-10-24T15:54:55.697Z,101614.78
2022-10-24T15:57:42.406Z,101605.13
2022-10-24T16:00:29.685Z,101602.50
2022-10-24T16:03:20.891Z,101600.75
2022-10-24T16:06:11.829Z,101599.91
2022-10-24T16:08:58.565Z,101604.31
2022-10-24T16:11:45.320Z,101597.31
2022-10-24T16:14:37.320Z,101601.72
2022-10-24T16:17:24.043Z,101606.09
2022-10-24T16:20:10.784Z,101601.72
2022-10-24T16:22:57.845Z,101595.66
2022-10-24T16:25:47.570Z,101595.59
2022-10-24T16:28:34.270Z,101594.72
2022-10-24T16:31:20.993Z,101591.25
2022-10-24T16:34:07.820Z,101590.38
2022-10-24T16:36:54.954Z,101593.91
2022-10-24T16:39:41.668Z,101579.84
2022-10-24T16:42:29.187Z,101590.41
2022-10-24T16:45:15.996Z,101598.31
2022-10-24T16:48:02.755Z,101603.59
2022-10-24T16:50:50.581Z,101596.59
2022-10-24T16:53:18.415Z,101597.44
2022-10-24T16:56:10.260Z,101590.47
2022-10-24T16:58:58.500Z,101594.84
2022-10-24T17:01:45.441Z,101596.66
2022-10-24T17:04:33.860Z,101589.59
2022-10-24T17:07:20.707Z,101588.78
2022-10-24T17:10:07.517Z,101588.81
2022-10-24T17:12:54.559Z,101585.31
2022-10-24T17:15:41.493Z,101577.41
2022-10-24T17:18:28.307Z,101588.88
2022-10-24T17:21:15.722Z,101583.63
2022-10-24T17:24:02.575Z,101584.53
2022-10-24T17:26:49.396Z,101574.00
2022-10-24T17:29:43.820Z,101576.66
2022-10-24T17:32:33.239Z,101576.66
2022-10-24T17:35:20.263Z,101584.56
2022-10-24T17:38:43.115Z,101581.13
2022-10-24T17:41:41.772Z,101582.91
2022-10-24T17:44:35.868Z,101584.66
2022-10-24T17:47:22.832Z,101523.66
2022-10-24T17:50:09.533Z,101581.16
2022-10-24T17:52:56.776Z,101582.00
2022-10-24T17:55:47.445Z,101580.25
2022-10-24T17:58:36.001Z,101577.66
2022-10-24T18:01:22.836Z,101575.91
2022-10-24T18:04:10.229Z,101578.53
2022-10-24T18:06:56.943Z,101513.28
2022-10-24T18:09:43.671Z,101571.47
2022-10-24T18:12:30.364Z,101556.72
2022-10-24T18:15:17.068Z,101569.72
2022-10-24T18:18:03.940Z,101572.34
2022-10-24T18:20:50.684Z,101569.72
2022-10-24T18:23:37.485Z,101569.72
2022-10-24T18:26:32.976Z,101570.63
2022-10-24T18:29:19.744Z,101572.38
2022-10-24T18:32:06.436Z,101563.56
2022-10-24T18:34:53.196Z,101560.94
2022-10-24T18:37:39.993Z,101553.03
2022-10-24T18:40:27.989Z,101557.44
2022-10-24T18:43:22.909Z,101538.22
2022-10-24T18:49:02.034Z,101551.34
2022-10-24T18:51:58.408Z,101552.22
2022-10-24T18:54:45.337Z,101513.00
2022-10-24T18:57:43.565Z,101540.81
2022-10-24T19:00:34.110Z,101532.91
2022-10-24T19:03:35.985Z,101529.34
2022-10-24T19:06:47.812Z,101528.47
2022-10-24T19:09:40.680Z,101516.31
2022-10-24T19:12:28.645Z,101519.78
2022-10-24T19:15:15.520Z,101529.31
2022-10-24T19:18:02.801Z,101523.22
2022-10-24T19:20:49.658Z,101528.47
2022-10-24T19:23:36.629Z,101527.53
2022-10-24T19:26:23.380Z,101518.72
2022-10-24T19:29:10.057Z,101503.03
2022-10-24T19:31:56.791Z,101516.97
2022-10-24T19:34:43.580Z,101507.38
2022-10-24T19:37:30.376Z,101516.97
2022-10-24T19:40:17.087Z,101480.44
2022-10-24T19:43:03.813Z,101523.09
2022-10-24T19:46:06.762Z,101509.91
2022-10-24T19:48:55.496Z,101517.78
2022-10-24T19:51:42.476Z,101526.53
2022-10-24T19:54:29.407Z,101521.25
2022-10-24T19:57:16.169Z,101425.56
2022-10-24T20:00:03.245Z,101521.19
2022-10-24T20:02:58.484Z,101520.38
2022-10-24T20:05:45.361Z,101526.44
2022-10-24T20:08:32.086Z,101511.50
2022-10-24T20:11:19.145Z,101498.47
2022-10-24T20:14:06.656Z,101515.84
2022-10-24T20:16:53.366Z,101512.31
2022-10-24T20:19:40.083Z,101497.41
2022-10-24T20:22:26.825Z,101503.47
2022-10-24T20:25:13.643Z,101500.88
2022-10-24T20:28:00.332Z,101499.94
2022-10-24T20:30:47.119Z,101497.28
2022-10-24T20:33:34.705Z,101496.41
2022-10-24T20:36:22.011Z,101496.41
2022-10-24T20:39:08.775Z,101492.88
2022-10-24T20:41:56.380Z,101493.75
2022-10-24T20:44:43.076Z,101484.97
2022-10-24T20:47:29.785Z,101485.81
2022-10-24T20:50:16.506Z,101491.09
2022-10-24T20:53:03.282Z,101487.53
2022-10-24T20:55:50.071Z,101487.53
2022-10-24T20:58:36.812Z,101484.91
2022-10-24T21:01:28.882Z,101472.59
2022-10-24T21:04:19.995Z,101471.69
2022-10-24T21:07:07.738Z,101473.44
2022-10-24T21:09:54.473Z,101463.81
2022-10-24T21:12:43.966Z,101449.91
2022-10-24T21:15:33.536Z,101463.75
2022-10-24T21:18:20.271Z,101472.53
2022-10-24T21:21:06.976Z,101461.13
2022-10-24T21:23:53.696Z,101463.72
2022-10-24T21:26:40.740Z,101427.19
2022-10-24T21:29:33.216Z,101461.06
2022-10-24T21:32:20.640Z,101461.91
2022-10-24T21:35:07.374Z,101434.78
2022-10-24T21:37:54.068Z,101454.78
2022-10-24T21:40:40.763Z,101448.59
2022-10-24T21:43:27.460Z,101452.94
2022-10-24T21:46:21.580Z,101454.69
2022-10-24T21:49:09.542Z,101434.59
2022-10-24T21:51:57.587Z,101456.38
2022-10-24T21:54:45.968Z,101432.84
2022-10-24T21:57:32.659Z,101447.53
2022-10-24T22:00:19.367Z,101448.38
2022-10-24T22:03:06.217Z,101446.63
2022-10-24T22:05:52.922Z,101431.75
2022-10-24T22:08:39.679Z,101440.41
2022-10-24T22:11:30.096Z,101445.63
2022-10-24T22:14:17.568Z,101443.88
2022-10-24T22:17:04.781Z,101447.31
2022-10-24T22:19:51.504Z,101446.44
2022-10-24T22:22:38.226Z,101434.09
2022-10-24T22:25:25.441Z,101439.34
2022-10-24T22:28:12.160Z,101446.38
2022-10-24T22:31:00.018Z,101442.84
2022-10-24T22:33:57.687Z,101428.88
2022-10-24T22:36:53.445Z,101443.69
2022-10-24T22:39:43.144Z,101443.66
2022-10-24T22:42:31.268Z,101430.63
2022-10-24T22:45:18.202Z,101443.63
2022-10-24T22:48:30.483Z,101445.38
2022-10-24T22:51:17.529Z,101437.44
2022-10-24T22:54:04.635Z,101433.03
2022-10-24T22:56:51.851Z,101432.13
2022-10-24T22:59:38.876Z,101424.19
2022-10-24T23:02:37.890Z,101425.97
2022-10-24T23:05:25.036Z,101432.97
2022-10-24T23:08:21.081Z,101430.28
2022-10-24T23:11:08.049Z,101428.53
2022-10-24T23:13:55.084Z,101427.63
2022-10-24T23:16:51.987Z,101423.22
2022-10-24T23:19:41.460Z,101425.84
2022-10-24T23:22:54.411Z,101422.31
2022-10-24T23:25:50.283Z,101415.28
2022-10-24T23:28:44.660Z,101418.75
2022-10-24T23:31:31.714Z,101411.75
2022-10-24T23:34:18.721Z,101404.69
2022-10-24T23:37:05.663Z,101391.66
2022-10-24T23:39:54.856Z,101411.63
2022-10-24T23:42:41.942Z,101414.19
2022-10-24T23:45:33.518Z,101384.53
2022-10-24T23:48:49.496Z,101407.00
2022-10-24T23:51:48.642Z,101399.09
2022-10-24T23:54:38.956Z,101409.47
2022-10-24T23:57:35.514Z,101403.28
